Time;durP1;ratioP1;P1;durP2;ratioP2;P2;SDS_P1;SDS_P2;PMS_P1;PMS_P2;Temp;Humidity;BMP_temperature;BMP_pressure;BME280_temperature;BME280_humidity;BME280_pressure;Samples;Min_cycle;Max_cycle;Signal;HPM_P1;HPM_P2
2022/07/21 00:00:30;;;;;;;8.93;7.15;;;20.70;99.90;;;;;;4843929;29;20050;-87
2022/07/21 00:02:57;;;;;;;10.95;7.38;;;20.70;99.90;;;;;;4835098;29;20049;-86
2022/07/21 00:05:23;;;;;;;9.30;6.38;;;20.60;99.90;;;;;;4821357;29;20415;-86
2022/07/21 00:07:50;;;;;;;12.20;7.68;;;20.70;99.90;;;;;;4827289;29;20057;-88
2022/07/21 00:10:15;;;;;;;14.98;7.60;;;20.60;99.90;;;;;;4810439;29;20049;-87
2022/07/21 00:12:41;;;;;;;12.57;7.53;;;20.60;99.90;;;;;;4817565;29;20052;-86
2022/07/21 00:15:07;;;;;;;12.45;7.80;;;20.50;99.90;;;;;;4824181;29;20045;-87
2022/07/21 00:17:33;;;;;;;11.68;7.70;;;20.50;99.90;;;;;;4812747;29;20113;-86
2022/07/21 00:19:59;;;;;;;13.55;7.75;;;20.40;99.90;;;;;;4828704;29;20062;-87
2022/07/21 00:22:27;;;;;;;10.10;7.50;;;20.40;99.90;;;;;;4823185;29;20046;-87
2022/07/21 00:24:55;;;;;;;11.02;7.18;;;20.40;99.90;;;;;;4843726;29;20132;-87
2022/07/21 00:27:22;;;;;;;11.30;7.63;;;20.30;99.90;;;;;;4832115;29;20109;-88
2022/07/21 00:29:50;;;;;;;10.68;7.85;;;20.30;99.90;;;;;;4834108;29;20514;-88
2022/07/21 00:32:16;;;;;;;13.70;7.60;;;20.20;99.90;;;;;;4832510;29;20049;-88
2022/07/21 00:34:42;;;;;;;12.50;7.68;;;20.30;99.90;;;;;;4831484;29;20398;-88
2022/07/21 00:37:08;;;;;;;12.88;8.38;;;20.20;99.90;;;;;;4817586;29;20482;-87
2022/07/21 00:39:34;;;;;;;12.38;8.50;;;20.20;99.90;;;;;;4816987;29;20061;-84
2022/07/21 00:42:00;;;;;;;9.93;7.60;;;20.20;99.90;;;;;;4830953;29;20042;-85
2022/07/21 00:44:26;;;;;;;12.48;8.90;;;20.10;99.90;;;;;;4830687;29;20045;-84
2022/07/21 00:46:52;;;;;;;14.70;8.60;;;20.10;99.90;;;;;;4830281;29;20061;-85
2022/07/21 00:49:18;;;;;;;16.33;9.73;;;20.00;99.90;;;;;;4845626;29;20052;-84
2022/07/21 00:51:44;;;;;;;15.18;9.65;;;19.90;99.90;;;;;;4844769;29;20081;-85
2022/07/21 00:54:09;;;;;;;15.90;10.07;;;19.90;99.90;;;;;;4823767;29;20089;-89
2022/07/21 00:56:35;;;;;;;16.42;9.65;;;19.80;99.90;;;;;;4804766;29;20056;-88
2022/07/21 00:59:01;;;;;;;16.92;9.95;;;19.70;99.90;;;;;;4860066;29;20057;-86
2022/07/21 01:01:26;;;;;;;16.50;10.57;;;19.70;99.90;;;;;;4844460;29;20088;-88
2022/07/21 01:03:52;;;;;;;15.80;11.35;;;19.70;99.90;;;;;;4846970;29;20050;-86
2022/07/21 01:06:18;;;;;;;19.42;11.00;;;19.60;99.90;;;;;;4854702;29;20049;-86
2022/07/21 01:08:46;;;;;;;19.17;11.05;;;19.50;99.90;;;;;;4839596;29;20073;-86
2022/07/21 01:11:11;;;;;;;18.88;11.57;;;19.60;99.90;;;;;;4818094;29;20410;-87
2022/07/21 01:13:41;;;;;;;18.30;11.13;;;19.50;99.90;;;;;;4852946;29;20101;-87
2022/07/21 01:16:10;;;;;;;19.17;11.88;;;19.50;99.90;;;;;;4844122;29;20086;-88
2022/07/21 01:18:36;;;;;;;17.60;11.88;;;19.40;99.90;;;;;;4840845;29;20049;-87
2022/07/21 01:21:03;;;;;;;15.95;12.77;;;19.40;99.90;;;;;;4850463;29;20033;-92
2022/07/21 01:23:29;;;;;;;19.70;12.15;;;19.40;99.90;;;;;;4848800;29;20049;-89
2022/07/21 01:25:55;;;;;;;19.00;12.93;;;19.40;99.90;;;;;;4817413;29;20053;-87
2022/07/21 01:28:20;;;;;;;21.23;12.20;;;19.30;99.90;;;;;;4804229;29;20046;-87
2022/07/21 01:30:46;;;;;;;18.05;13.07;;;19.30;99.90;;;;;;4848329;29;20443;-90
2022/07/21 01:33:11;;;;;;;16.90;12.25;;;19.30;99.90;;;;;;4836789;29;20113;-88
2022/07/21 01:35:37;;;;;;;21.00;13.00;;;19.30;99.90;;;;;;4802656;29;20045;-90
2022/07/21 01:38:03;;;;;;;19.10;14.02;;;19.20;99.90;;;;;;4819558;29;20094;-91
2022/07/21 01:43:13;;;;;;;23.45;13.70;;;19.00;99.90;;;;;;4837583;29;20565;-91
2022/07/21 01:45:41;;;;;;;19.98;14.45;;;19.00;99.90;;;;;;4835989;29;20085;-92
2022/07/21 01:48:06;;;;;;;21.10;14.15;;;18.80;99.90;;;;;;4835166;29;20210;-91
2022/07/21 01:50:38;;;;;;;23.20;15.60;;;18.70;99.90;;;;;;4799806;29;20057;-92
2022/07/21 01:53:04;;;;;;;20.10;14.65;;;17.20;99.90;;;;;;4778656;29;20054;-92
2022/07/21 01:55:32;;;;;;;27.55;15.05;;;17.30;99.90;;;;;;4816303;29;20490;-92
2022/07/21 01:58:00;;;;;;;22.90;15.40;;;18.70;99.90;;;;;;4788513;29;20060;-91
2022/07/21 02:00:26;;;;;;;23.83;14.77;;;18.70;99.90;;;;;;4844942;29;20082;-90
2022/07/21 02:02:53;;;;;;;28.75;15.80;;;18.80;99.90;;;;;;4794094;29;20069;-91
2022/07/21 02:05:22;;;;;;;22.60;15.10;;;18.70;99.90;;;;;;4812397;29;20066;-92
2022/07/21 02:07:52;;;;;;;25.00;16.15;;;18.40;99.90;;;;;;4809902;29;20119;-92
2022/07/21 02:10:22;;;;;;;25.88;15.88;;;18.70;99.90;;;;;;4823694;29;20125;-90
2022/07/21 02:12:50;;;;;;;27.05;16.27;;;18.60;99.90;;;;;;4846163;29;20057;-91
2022/07/21 02:15:16;;;;;;;28.63;16.42;;;18.40;99.90;;;;;;4805355;29;20045;-93
2022/07/21 02:17:42;;;;;;;24.52;15.88;;;18.40;99.90;;;;;;4825708;29;20065;-91
2022/07/21 02:20:08;;;;;;;23.67;16.42;;;18.60;99.90;;;;;;4801728;29;20046;-91
2022/07/21 02:22:34;;;;;;;29.00;17.48;;;18.50;99.90;;;;;;4798219;29;20054;-90
2022/07/21 02:25:11;;;;;;;26.13;17.48;;;18.50;99.90;;;;;;4840681;29;20053;-91
2022/07/21 02:27:37;;;;;;;27.25;17.40;;;17.00;99.90;;;;;;4783804;29;20086;-93
2022/07/21 02:30:08;;;;;;;25.70;16.65;;;18.60;99.90;;;;;;4801101;29;20062;-92
2022/07/21 02:32:49;;;;;;;;;;;;;;;;;;;;;
2022/07/21 02:35:18;;;;;;;25.80;17.25;;;18.60;99.90;;;;;;4848797;29;20041;-94
2022/07/21 02:37:54;;;;;;;;;;;;;;;;;;;;;
2022/07/21 02:40:23;;;;;;;27.42;18.42;;;18.80;99.90;;;;;;4832893;29;20058;-93
2022/07/21 02:42:57;;;;;;;27.90;18.10;;;18.90;99.90;;;;;;4868725;29;20033;-91
2022/07/21 02:45:26;;;;;;;28.20;18.17;;;18.60;99.90;;;;;;4824531;29;20049;-92
2022/07/21 02:48:02;;;;;;;29.15;18.65;;;18.60;99.90;;;;;;4793119;29;20110;-92
2022/07/21 02:50:42;;;;;;;;;;;;;;;;;;;;;
2022/07/21 02:53:17;;;;;;;25.75;17.42;;;18.60;99.90;;;;;;4814100;29;20060;-91
2022/07/21 02:55:53;;;;;;;;;;;;;;;;;;;;;
2022/07/21 02:58:31;;;;;;;28.20;17.92;;;18.70;99.90;;;;;;4830804;29;20050;-91
2022/07/21 03:01:02;;;;;;;24.45;17.33;;;18.00;99.90;;;;;;4791195;29;20145;-90
2022/07/21 03:03:37;;;;;;;24.88;17.23;;;18.60;99.90;;;;;;4813572;29;20053;-90
2022/07/21 03:06:06;;;;;;;24.92;18.15;;;18.50;99.90;;;;;;4804201;29;20057;-91
2022/07/21 03:09:02;;;;;;;;;;;;;;;;;;;;;
2022/07/21 03:11:29;;;;;;;24.40;16.15;;;18.70;99.90;;;;;;4833982;29;20054;-90
2022/07/21 03:13:55;;;;;;;21.50;16.25;;;18.70;99.90;;;;;;4791893;29;20052;-89
2022/07/21 03:16:33;;;;;;;24.63;16.40;;;18.80;99.90;;;;;;4798193;29;20050;-91
2022/07/21 03:19:01;;;;;;;23.08;15.57;;;18.70;99.90;;;;;;4798147;29;20145;-89
2022/07/21 03:21:30;;;;;;;21.45;15.52;;;18.60;99.90;;;;;;4805238;29;20128;-91
2022/07/21 03:23:56;;;;;;;17.67;15.77;;;18.60;99.90;;;;;;4797191;29;20125;-90
2022/07/21 03:26:22;;;;;;;18.92;14.90;;;18.60;99.90;;;;;;4832116;29;20140;-90
2022/07/21 03:28:50;;;;;;;21.92;16.02;;;17.50;99.90;;;;;;4800131;29;20050;-92
2022/07/21 03:31:16;;;;;;;18.67;15.80;;;18.70;99.90;;;;;;4785183;29;20418;-91
2022/07/21 03:33:41;;;;;;;18.17;15.45;;;18.60;99.90;;;;;;4817714;29;20362;-91
2022/07/21 03:36:12;;;;;;;18.65;16.20;;;18.60;99.90;;;;;;4850697;29;20046;-91
2022/07/21 03:38:41;;;;;;;20.77;16.48;;;18.50;99.90;;;;;;4809486;29;20050;-90
2022/07/21 03:41:06;;;;;;;22.90;16.25;;;18.70;99.90;;;;;;4803123;29;20380;-91
2022/07/21 03:46:36;;;;;;;;;;;;;;;;;;;;;
2022/07/21 03:49:02;;;;;;;20.83;15.30;;;18.90;99.90;;;;;;4823127;29;20308;-90
2022/07/21 03:51:30;;;;;;;22.33;16.55;;;18.70;99.90;;;;;;4801295;29;20088;-90
2022/07/21 03:53:58;;;;;;;24.15;16.88;;;18.60;99.90;;;;;;4816069;29;20106;-89
2022/07/21 03:56:24;;;;;;;24.85;17.40;;;18.50;99.90;;;;;;4816088;29;20061;-90
2022/07/21 03:58:52;;;;;;;23.30;17.52;;;18.50;99.90;;;;;;4800985;29;20140;-90
2022/07/21 04:01:18;;;;;;;24.10;16.98;;;18.50;99.90;;;;;;4816263;29;20114;-90
2022/07/21 04:03:56;;;;;;;23.52;18.05;;;18.70;99.90;;;;;;4837879;29;20030;-91
2022/07/21 04:06:27;;;;;;;22.92;17.42;;;18.60;99.90;;;;;;4827888;29;20035;-92
2022/07/21 04:08:56;;;;;;;23.83;17.80;;;18.50;99.90;;;;;;4842077;29;20049;-94
2022/07/21 04:11:22;;;;;;;25.05;18.15;;;18.70;99.90;;;;;;4820814;29;20125;-90
2022/07/21 04:13:59;;;;;;;26.13;17.35;;;18.70;99.90;;;;;;4835993;29;20402;-90
2022/07/21 04:16:26;;;;;;;28.38;17.33;;;18.60;99.90;;;;;;4816722;29;20083;-89
2022/07/21 04:18:58;;;;;;;24.33;17.45;;;18.60;99.90;;;;;;4815565;29;20512;-90
2022/07/21 04:21:33;;;;;;;23.38;17.52;;;18.60;99.90;;;;;;4815090;29;20052;-88
2022/07/21 04:24:02;;;;;;;26.48;19.25;;;18.60;99.90;;;;;;4816271;29;20174;-90
2022/07/21 04:26:28;;;;;;;26.48;19.05;;;18.70;99.90;;;;;;4814439;29;20053;-90
2022/07/21 04:28:56;;;;;;;32.08;20.88;;;18.60;99.90;;;;;;4787532;29;20053;-90
2022/07/21 04:31:24;;;;;;;34.13;20.35;;;18.60;99.90;;;;;;4800125;29;20079;-91
2022/07/21 04:33:52;;;;;;;33.60;21.00;;;18.60;99.90;;;;;;4819157;29;20099;-91
2022/07/21 04:36:18;;;;;;;30.67;22.15;;;18.60;99.90;;;;;;4792942;29;20082;-92
2022/07/21 04:38:55;;;;;;;35.65;22.48;;;17.80;99.90;;;;;;4829786;29;20050;-91
2022/07/21 04:41:25;;;;;;;34.67;22.67;;;18.30;99.90;;;;;;4827335;29;20046;-89
2022/07/21 04:44:00;;;;;;;43.15;23.98;;;18.70;99.90;;;;;;4802684;29;20057;-90
2022/07/21 04:46:30;;;;;;;36.85;26.45;;;17.80;99.90;;;;;;4800125;29;20050;-90
2022/07/21 04:48:58;;;;;;;44.88;26.98;;;17.60;99.90;;;;;;4815215;29;20491;-91
2022/07/21 04:51:24;;;;;;;42.70;25.30;;;18.70;99.90;;;;;;4797110;29;20054;-89
2022/07/21 04:53:50;;;;;;;42.88;27.15;;;18.70;99.90;;;;;;4798280;29;20133;-90
2022/07/21 04:56:16;;;;;;;41.78;27.13;;;18.70;99.90;;;;;;4822878;29;20050;-90
2022/07/21 04:58:44;;;;;;;43.95;29.17;;;17.60;99.90;;;;;;4794087;29;20140;-90
2022/07/21 05:01:17;;;;;;;48.85;30.33;;;18.80;99.90;;;;;;4803627;29;20054;-89
2022/07/21 05:03:48;;;;;;;46.78;30.60;;;18.90;99.90;;;;;;4812424;29;20046;-91
2022/07/21 05:06:14;;;;;;;46.03;31.92;;;18.90;99.90;;;;;;4829199;29;20065;-89
2022/07/21 05:08:39;;;;;;;48.72;31.45;;;18.80;99.90;;;;;;4816851;29;20098;-90
2022/07/21 05:11:23;;;;;;;47.05;30.67;;;18.80;99.90;;;;;;4832918;29;20117;-89
2022/07/21 05:13:49;;;;;;;48.70;32.13;;;17.40;99.90;;;;;;4806734;29;20049;-91
2022/07/21 05:16:17;;;;;;;46.67;30.80;;;19.20;99.90;;;;;;4816793;29;20049;-90
2022/07/21 05:18:45;;;;;;;46.55;30.83;;;17.50;99.90;;;;;;4814285;29;20057;-90
2022/07/21 05:21:11;;;;;;;48.80;33.97;;;18.80;99.90;;;;;;4814125;29;20053;-89
2022/07/21 05:23:45;;;;;;;49.35;33.13;;;18.80;99.90;;;;;;4814200;29;20053;-91
2022/07/21 05:26:14;;;;;;;45.15;32.10;;;18.90;99.90;;;;;;4831075;29;20041;-89
2022/07/21 05:28:40;;;;;;;48.75;32.53;;;19.00;99.90;;;;;;4816812;29;20065;-91
2022/07/21 05:31:06;;;;;;;45.67;31.55;;;18.90;99.90;;;;;;4818866;29;20050;-93
2022/07/21 05:34:35;;;;;;;46.67;32.78;;;19.10;99.90;;;;;;4817511;29;20064;-90
2022/07/21 05:37:11;;;;;;;44.90;31.25;;;18.80;99.90;;;;;;4780701;29;20069;-88
2022/07/21 05:39:37;;;;;;;44.13;32.42;;;19.00;99.90;;;;;;4821682;29;20157;-86
2022/07/21 05:42:02;;;;;;;43.45;31.17;;;19.10;99.90;;;;;;4870085;29;20057;-86
2022/07/21 05:44:28;;;;;;;47.50;32.50;;;19.10;99.90;;;;;;4852915;29;20077;-85
2022/07/21 05:46:54;;;;;;;44.13;32.17;;;19.20;99.90;;;;;;4826009;29;20098;-86
2022/07/21 05:49:19;;;;;;;43.75;32.15;;;19.30;99.90;;;;;;4834744;29;20133;-86
2022/07/21 05:51:45;;;;;;;42.75;31.38;;;19.50;99.90;;;;;;4834835;29;20050;-85
2022/07/21 05:54:11;;;;;;;44.00;32.97;;;19.50;99.90;;;;;;4794399;29;20046;-85
2022/07/21 05:56:36;;;;;;;44.13;32.97;;;19.50;99.90;;;;;;4842109;29;20559;-85
2022/07/21 05:59:02;;;;;;;46.42;33.70;;;19.60;99.90;;;;;;4842055;29;20058;-85
2022/07/21 06:01:28;;;;;;;50.08;35.72;;;19.70;99.90;;;;;;4841947;29;20053;-85
2022/07/21 06:03:53;;;;;;;42.00;33.28;;;20.00;99.90;;;;;;4795416;29;20509;-84
2022/07/21 06:06:19;;;;;;;42.72;32.88;;;20.10;99.90;;;;;;4841569;29;20093;-84
2022/07/21 06:08:46;;;;;;;41.00;32.47;;;20.10;99.90;;;;;;4825579;29;20536;-85
2022/07/21 06:11:13;;;;;;;41.30;33.05;;;20.40;99.90;;;;;;4825164;29;20058;-85
2022/07/21 06:13:39;;;;;;;40.00;32.08;;;20.30;99.90;;;;;;4841896;29;20050;-84
2022/07/21 06:16:05;;;;;;;39.38;32.78;;;20.30;99.90;;;;;;4825262;29;20045;-84
2022/07/21 06:18:31;;;;;;;37.42;30.92;;;20.20;99.90;;;;;;4825029;29;20080;-86
2022/07/21 06:20:56;;;;;;;39.80;32.38;;;20.00;99.90;;;;;;4824961;29;20510;-85
2022/07/21 06:23:22;;;;;;;36.83;31.88;;;20.00;99.90;;;;;;4824355;29;20066;-85
2022/07/21 06:25:48;;;;;;;39.83;33.28;;;20.00;99.90;;;;;;4840860;29;20132;-85
2022/07/21 06:28:14;;;;;;;38.03;33.83;;;19.70;99.90;;;;;;4826333;29;20081;-85
2022/07/21 06:30:39;;;;;;;38.67;31.52;;;19.70;99.90;;;;;;4808516;29;20526;-85
2022/07/21 06:33:05;;;;;;;37.70;31.77;;;19.80;99.90;;;;;;4823578;29;20052;-85
2022/07/21 06:35:31;;;;;;;37.47;33.25;;;19.90;99.90;;;;;;4839911;29;20642;-85
2022/07/21 06:37:57;;;;;;;38.47;32.90;;;19.80;99.90;;;;;;4806544;29;20046;-85
2022/07/21 06:40:22;;;;;;;39.22;33.05;;;19.80;99.90;;;;;;4795306;29;20079;-84
2022/07/21 06:42:48;;;;;;;39.38;32.00;;;19.90;99.90;;;;;;4816889;29;20086;-84
2022/07/21 06:45:14;;;;;;;37.63;31.75;;;19.80;99.90;;;;;;4840784;29;20060;-87
2022/07/21 06:47:40;;;;;;;39.15;32.92;;;19.80;99.90;;;;;;4823243;29;20081;-84
2022/07/21 06:50:07;;;;;;;37.85;31.98;;;19.80;99.90;;;;;;4838570;29;20053;-80
2022/07/21 06:52:33;;;;;;;38.00;32.30;;;19.80;99.90;;;;;;4827148;29;20090;-81
2022/07/21 06:54:58;;;;;;;35.13;31.08;;;19.70;99.90;;;;;;4826500;29;20030;-80
2022/07/21 06:57:24;;;;;;;32.35;28.73;;;19.70;99.90;;;;;;4810766;29;20629;-81
2022/07/21 06:59:50;;;;;;;36.63;30.50;;;19.60;99.90;;;;;;4808352;29;20503;-82
2022/07/21 07:02:15;;;;;;;36.13;31.20;;;19.50;99.90;;;;;;4841954;29;20037;-82
2022/07/21 07:04:43;;;;;;;32.47;28.88;;;19.50;99.90;;;;;;4828888;29;20387;-82
2022/07/21 07:07:09;;;;;;;38.70;31.33;;;19.40;99.90;;;;;;4839816;29;20498;-84
2022/07/21 07:09:35;;;;;;;37.22;31.65;;;19.40;99.90;;;;;;4840621;29;20309;-83
2022/07/21 07:12:04;;;;;;;37.95;30.65;;;19.40;99.90;;;;;;4840764;29;20502;-82
2022/07/21 07:14:33;;;;;;;38.55;31.50;;;19.40;99.90;;;;;;4830381;29;20050;-83
2022/07/21 07:16:59;;;;;;;35.65;30.38;;;19.40;99.90;;;;;;4845625;29;20026;-81
2022/07/21 07:19:24;;;;;;;35.67;30.20;;;19.40;99.90;;;;;;4827982;29;20075;-82
2022/07/21 07:21:50;;;;;;;35.80;29.75;;;19.40;99.90;;;;;;4834217;29;20485;-83
2022/07/21 07:24:16;;;;;;;33.45;28.98;;;19.60;99.90;;;;;;4852310;29;20049;-82
2022/07/21 07:26:41;;;;;;;37.20;28.23;;;19.60;99.90;;;;;;4840819;29;20595;-81
2022/07/21 07:29:07;;;;;;;32.97;28.73;;;19.80;99.90;;;;;;4842710;29;20416;-83
2022/07/21 07:31:33;;;;;;;33.58;28.67;;;20.00;99.90;;;;;;4821089;29;20125;-82
2022/07/21 07:33:58;;;;;;;35.13;28.40;;;20.10;99.90;;;;;;4838911;29;20106;-83
2022/07/21 07:36:25;;;;;;;32.13;26.60;;;20.10;99.90;;;;;;4797880;29;20050;-82
2022/07/21 07:38:51;;;;;;;32.78;27.67;;;20.30;99.90;;;;;;4823580;29;20041;-82
2022/07/21 07:41:22;;;;;;;31.48;28.08;;;20.30;99.90;;;;;;4819444;29;20128;-83
2022/07/21 07:43:48;;;;;;;34.20;28.40;;;20.10;99.90;;;;;;4814897;29;20041;-82
2022/07/21 07:46:14;;;;;;;32.20;27.50;;;20.40;99.90;;;;;;4844211;29;20117;-83
2022/07/21 07:48:41;;;;;;;35.25;29.10;;;20.30;99.90;;;;;;4841492;29;20050;-82
2022/07/21 07:51:07;;;;;;;34.33;30.55;;;20.30;99.90;;;;;;4823798;29;20053;-82
2022/07/21 07:53:33;;;;;;;33.72;28.60;;;20.30;99.90;;;;;;4840146;29;20045;-82
2022/07/21 07:55:58;;;;;;;34.88;29.63;;;20.50;99.90;;;;;;4823766;29;20042;-81
2022/07/21 07:58:24;;;;;;;34.75;30.00;;;20.40;99.90;;;;;;4839869;29;20050;-81
2022/07/21 08:00:50;;;;;;;36.72;31.92;;;20.50;99.90;;;;;;4841927;29;20041;-81
2022/07/21 08:03:16;;;;;;;36.80;31.98;;;20.60;99.90;;;;;;4795676;29;20506;-81
2022/07/21 08:05:41;;;;;;;40.15;31.88;;;20.60;99.90;;;;;;4818456;29;20432;-81
2022/07/21 08:08:07;;;;;;;37.08;31.58;;;20.80;99.90;;;;;;4838615;29;20073;-81
2022/07/21 08:10:33;;;;;;;36.92;31.63;;;21.00;99.90;;;;;;4842678;29;20057;-82
2022/07/21 08:12:59;;;;;;;39.63;31.58;;;21.10;99.90;;;;;;4844266;29;20049;-81
2022/07/21 08:15:25;;;;;;;36.40;30.33;;;21.30;99.90;;;;;;4802260;29;20039;-81
2022/07/21 08:17:51;;;;;;;40.47;31.38;;;21.30;99.90;;;;;;4852583;29;20120;-81
2022/07/21 08:20:17;;;;;;;35.28;30.30;;;21.90;99.90;;;;;;4851488;29;20519;-82
2022/07/21 08:22:42;;;;;;;33.92;28.77;;;22.70;99.90;;;;;;4805661;29;20092;-83
2022/07/21 08:25:08;;;;;;;32.55;28.25;;;23.80;99.90;;;;;;4844157;29;20054;-81
2022/07/21 08:27:34;;;;;;;35.22;28.42;;;24.50;99.90;;;;;;4836890;29;20042;-81
2022/07/21 08:29:59;;;;;;;31.55;27.80;;;25.10;99.90;;;;;;4843566;29;20564;-81
2022/07/21 08:32:25;;;;;;;30.98;26.40;;;25.70;99.90;;;;;;4834293;29;20053;-81
2022/07/21 08:34:51;;;;;;;28.38;25.23;;;25.70;99.90;;;;;;4841992;29;20046;-82
2022/07/21 08:37:19;;;;;;;25.83;23.13;;;26.10;99.90;;;;;;4820047;29;20612;-82
2022/07/21 08:39:45;;;;;;;24.95;22.27;;;26.90;99.90;;;;;;4822376;29;20045;-82
2022/07/21 08:42:11;;;;;;;24.50;22.00;;;26.60;99.90;;;;;;4841395;29;20042;-82
2022/07/21 08:44:37;;;;;;;24.27;21.95;;;27.30;99.90;;;;;;4823690;29;20428;-82
2022/07/21 08:47:03;;;;;;;23.75;21.38;;;27.30;99.90;;;;;;4841265;29;20128;-83
2022/07/21 08:49:29;;;;;;;22.48;20.33;;;26.50;99.90;;;;;;4813107;29;20049;-83
2022/07/21 08:51:55;;;;;;;22.83;20.55;;;26.40;99.90;;;;;;4833600;29;20036;-84
2022/07/21 08:54:22;;;;;;;22.27;20.08;;;26.00;99.90;;;;;;4865200;29;20058;-83
2022/07/21 08:56:48;;;;;;;22.77;20.55;;;26.00;99.90;;;;;;4845182;29;20037;-84
2022/07/21 08:59:14;;;;;;;22.30;20.10;;;26.60;99.90;;;;;;4842956;29;20046;-83
2022/07/21 09:01:40;;;;;;;20.65;18.65;;;26.70;99.90;;;;;;4826168;29;20386;-82
2022/07/21 09:04:35;;;;;;;22.20;20.08;;;26.90;99.90;;;;;;4811010;29;20063;-81
2022/07/21 09:07:05;;;;;;;21.15;19.05;;;26.50;99.90;;;;;;4827126;29;20054;-81
2022/07/21 09:09:33;;;;;;;21.88;19.77;;;26.70;99.90;;;;;;4826378;29;20379;-81
2022/07/21 09:12:01;;;;;;;18.83;17.02;;;26.30;99.90;;;;;;4810792;29;20057;-82
2022/07/21 09:14:29;;;;;;;20.88;18.67;;;26.30;99.90;;;;;;4826474;29;20538;-83
2022/07/21 09:17:00;;;;;;;22.38;20.17;;;26.10;99.90;;;;;;4807637;29;20328;-83
2022/07/21 09:19:31;;;;;;;21.27;19.05;;;25.30;99.90;;;;;;4827587;29;20037;-83
2022/07/21 09:22:01;;;;;;;21.48;19.30;;;25.40;99.90;;;;;;4826617;29;20129;-83
2022/07/21 09:24:33;;;;;;;20.45;18.40;;;25.40;99.90;;;;;;4797935;29;20117;-84
2022/07/21 09:27:12;;;;;;;19.83;17.83;;;25.30;99.90;;;;;;4832738;29;20050;-83
2022/07/21 09:29:49;;;;;;;19.23;17.25;;;24.90;99.90;;;;;;4823050;29;20089;-83
2022/07/21 09:32:23;;;;;;;19.85;17.75;;;24.70;99.90;;;;;;4840252;29;20049;-83
2022/07/21 09:34:53;;;;;;;18.05;16.25;;;24.60;99.90;;;;;;4843999;29;20493;-83
2022/07/21 09:37:19;;;;;;;17.35;15.43;;;24.50;99.90;;;;;;4809757;29;20054;-83
2022/07/21 09:39:50;;;;;;;17.95;16.13;;;24.50;99.90;;;;;;4824062;29;20042;-84
2022/07/21 09:42:38;;;;;;;15.80;14.30;;;24.60;99.90;;;;;;4848389;29;20078;-85
2022/07/21 09:45:12;;;;;;;16.73;15.02;;;24.50;99.90;;;;;;4810584;29;20045;-82
2022/07/21 09:47:38;;;;;;;;;;;24.70;99.90;;;;;;4858070;29;20072;-82
2022/07/21 09:50:04;;;;;;;16.60;14.90;;;25.00;99.90;;;;;;4845609;29;19932;-82
2022/07/21 09:52:34;;;;;;;17.88;16.00;;;25.00;99.90;;;;;;4819416;29;20380;-82
2022/07/21 09:55:01;;;;;;;17.65;15.75;;;25.20;99.90;;;;;;4824690;29;20487;-83
2022/07/21 09:57:27;;;;;;;18.70;16.80;;;25.90;99.90;;;;;;4838338;29;20042;-83
2022/07/21 09:59:53;;;;;;;17.67;15.88;;;26.00;99.90;;;;;;4823688;29;20081;-82
2022/07/21 10:02:23;;;;;;;19.08;17.17;;;26.30;99.90;;;;;;4823442;29;20114;-83
2022/07/21 10:04:58;;;;;;;19.55;17.45;;;26.10;99.90;;;;;;4825048;29;20364;-83
2022/07/21 10:07:24;;;;;;;20.73;17.13;;;25.80;99.90;;;;;;4823568;29;20504;-83
2022/07/21 10:09:50;;;;;;;18.92;16.90;;;25.40;99.90;;;;;;4818046;29;20128;-83
2022/07/21 10:12:16;;;;;;;18.73;16.73;;;25.60;99.90;;;;;;4807574;29;20050;-83
2022/07/21 10:14:42;;;;;;;19.63;17.63;;;25.20;99.90;;;;;;4823516;29;20133;-83
2022/07/21 10:17:08;;;;;;;19.23;17.33;;;25.00;99.90;;;;;;4826821;29;20086;-82
2022/07/21 10:20:05;;;;;;;19.80;17.70;;;24.90;99.90;;;;;;4811785;29;20096;-83
2022/07/21 10:22:40;;;;;;;19.75;17.58;;;24.90;99.90;;;;;;4822851;29;20042;-83
2022/07/21 10:25:06;;;;;;;17.85;16.05;;;24.60;99.90;;;;;;4832710;29;20057;-85
2022/07/21 10:27:32;;;;;;;19.70;17.63;;;24.40;99.90;;;;;;4839417;29;20034;-82
2022/07/21 10:30:00;;;;;;;19.92;17.52;;;24.20;99.90;;;;;;4830095;29;20074;-85
2022/07/21 10:32:34;;;;;;;20.20;17.48;;;24.40;99.90;;;;;;4848738;29;20090;-83
2022/07/21 10:35:28;;;;;;;19.65;17.55;;;24.30;99.90;;;;;;4847827;29;20070;-82
2022/07/21 10:37:54;;;;;;;25.92;23.15;;;23.80;99.90;;;;;;4803780;29;20137;-81
2022/07/21 10:40:19;;;;;;;29.85;26.20;;;23.40;99.90;;;;;;4807796;29;20189;-82
2022/07/21 10:43:01;;;;;;;32.35;27.30;;;23.10;99.90;;;;;;4824284;29;20070;-82
2022/07/21 10:45:40;;;;;;;35.30;29.15;;;23.10;99.90;;;;;;4823509;29;20054;-83
2022/07/21 10:48:07;;;;;;;36.58;30.95;;;22.80;99.90;;;;;;4806022;29;20049;-82
2022/07/21 10:50:38;;;;;;;37.28;30.02;;;22.50;99.90;;;;;;4824867;29;20049;-82
2022/07/21 10:53:05;;;;;;;39.55;31.42;;;22.40;99.90;;;;;;4819391;29;20072;-83
2022/07/21 10:55:52;;;;;;;39.78;32.28;;;22.30;99.90;;;;;;4832627;29;20042;-82
2022/07/21 10:58:24;;;;;;;41.90;33.97;;;22.10;99.90;;;;;;4809720;29;20045;-82
2022/07/21 11:00:55;;;;;;;46.40;34.47;;;21.90;99.90;;;;;;4842644;29;20066;-84
2022/07/21 11:03:28;;;;;;;43.70;33.38;;;21.90;99.90;;;;;;4839168;29;20046;-82
2022/07/21 11:06:14;;;;;;;43.65;33.38;;;21.80;99.90;;;;;;4832807;29;20037;-83
2022/07/21 11:08:42;;;;;;;44.58;33.92;;;21.80;99.90;;;;;;4821783;29;20057;-82
2022/07/21 11:11:10;;;;;;;42.67;33.85;;;21.80;99.90;;;;;;4816630;29;20608;-82
2022/07/21 11:14:00;;;;;;;44.45;33.53;;;21.90;99.90;;;;;;4832998;29;20410;-84
2022/07/21 11:16:41;;;;;;;42.38;33.08;;;21.80;99.90;;;;;;4827743;29;20049;-82
2022/07/21 11:19:41;;;;;;;46.70;33.63;;;21.90;99.90;;;;;;4837687;29;20054;-81
2022/07/21 11:22:06;;;;;;;42.25;32.90;;;22.00;99.90;;;;;;4821939;29;20043;-81
2022/07/21 11:24:32;;;;;;;45.97;33.50;;;22.00;99.90;;;;;;4826405;29;20053;-81
2022/07/21 11:27:03;;;;;;;42.53;33.45;;;22.10;99.90;;;;;;4805328;29;20503;-81
2022/07/21 11:29:29;;;;;;;42.72;33.42;;;22.30;99.90;;;;;;4798998;29;20061;-81
2022/07/21 11:31:56;;;;;;;44.42;34.08;;;22.20;99.90;;;;;;4809583;29;20351;-82
2022/07/21 11:34:22;;;;;;;44.90;34.15;;;22.30;99.90;;;;;;4795233;29;20550;-83
2022/07/21 11:36:48;;;;;;;42.47;33.88;;;22.50;99.90;;;;;;4802905;29;20065;-82
2022/07/21 11:39:15;;;;;;;39.97;31.67;;;22.60;99.90;;;;;;4815387;29;20498;-82
2022/07/21 11:41:41;;;;;;;42.20;32.70;;;22.70;99.90;;;;;;4836489;29;20077;-82
2022/07/21 11:44:08;;;;;;;39.25;31.70;;;22.90;99.90;;;;;;4828834;29;20054;-82
2022/07/21 11:46:47;;;;;;;40.30;31.50;;;23.00;99.90;;;;;;4843982;29;20045;-82
2022/07/21 11:49:13;;;;;;;37.70;30.90;;;23.10;99.90;;;;;;4812601;29;20118;-82
2022/07/21 11:51:48;;;;;;;40.35;31.85;;;23.20;99.90;;;;;;4841556;29;20441;-83
2022/07/21 11:54:31;;;;;;;40.83;30.70;;;23.30;99.90;;;;;;4837117;29;20080;-83
2022/07/21 11:56:57;;;;;;;38.47;29.20;;;23.40;99.90;;;;;;4814669;29;20065;-83
2022/07/21 11:59:23;;;;;;;37.38;29.38;;;23.40;99.90;;;;;;4840627;29;20487;-81
2022/07/21 12:02:11;;;;;;;36.90;29.85;;;23.50;99.90;;;;;;4858619;29;20038;-85
2022/07/21 12:04:43;;;;;;;33.40;28.25;;;23.70;99.90;;;;;;4860821;29;20070;-82
2022/07/21 12:07:16;;;;;;;40.05;30.33;;;23.70;99.90;;;;;;4834859;29;20042;-82
2022/07/21 12:09:43;;;;;;;35.35;29.33;;;24.00;99.90;;;;;;4825465;29;20049;-82
2022/07/21 12:12:09;;;;;;;35.42;28.75;;;24.20;99.90;;;;;;4823852;29;20115;-82
2022/07/21 12:14:45;;;;;;;34.53;28.55;;;24.30;99.90;;;;;;4804775;29;20046;-83
2022/07/21 12:17:10;;;;;;;35.72;29.13;;;24.50;99.90;;;;;;4809770;29;20046;-83
2022/07/21 12:19:36;;;;;;;34.58;28.48;;;24.50;99.90;;;;;;4841102;29;20122;-82
2022/07/21 12:22:02;;;;;;;36.03;27.98;;;24.30;99.90;;;;;;4826335;29;20053;-82
2022/07/21 12:24:58;;;;;;;25.73;21.95;;;24.20;99.90;;;;;;4842738;29;20046;-83
2022/07/21 12:27:24;;;;;;;22.42;20.00;;;23.90;99.90;;;;;;4853635;29;20037;-82
2022/07/21 12:29:50;;;;;;;22.67;19.60;;;23.90;99.90;;;;;;4820116;29;20040;-81
2022/07/21 12:32:46;;;;;;;21.45;19.13;;;23.60;99.90;;;;;;4813512;29;20049;-83
2022/07/21 12:35:27;;;;;;;23.10;19.45;;;23.40;99.90;;;;;;4847389;29;20118;-83
2022/07/21 12:38:07;;;;;;;24.45;20.25;;;23.50;99.90;;;;;;4804764;29;20435;-83
2022/07/21 12:40:34;;;;;;;23.60;18.92;;;23.30;99.90;;;;;;4842567;29;20053;-82
2022/07/21 12:43:19;;;;;;;21.80;19.15;;;23.30;99.90;;;;;;4824249;29;20053;-81
2022/07/21 12:45:48;;;;;;;24.92;20.80;;;23.50;99.90;;;;;;4788159;29;20042;-82
2022/07/21 12:48:16;;;;;;;25.35;21.30;;;23.60;99.90;;;;;;4838620;29;20493;-82
2022/07/21 12:50:42;;;;;;;26.90;22.48;;;23.60;99.90;;;;;;4822571;29;20487;-81